Time;durP1;ratioP1;P1;durP2;ratioP2;P2;SDS_P1;SDS_P2;PMS_P1;PMS_P2;Temp;Humidity;BMP_temperature;BMP_pressure;BME280_temperature;BME280_humidity;BME280_pressure;Samples;Min_cycle;Max_cycle;Signal;HPM_P1;HPM_P2
2021/12/16 00:01:48;;;;;;;0.43;0.20;;;5.60;99.90;;;;;;4984189;28;20666;-94
2021/12/16 00:07:21;;;;;;;0.80;0.27;;;5.40;99.90;;;;;;4987711;28;20233;-94
2021/12/16 00:10:02;;;;;;;0.30;0.20;;;5.40;99.90;;;;;;4983681;28;20210;-94
2021/12/16 00:32:42;;;;;;;0.90;0.60;;;5.40;99.90;;;;;;5002834;28;20645;-94
2021/12/16 00:35:14;;;;;;;0.40;0.30;;;5.40;99.90;;;;;;4985470;28;20249;-94
2021/12/16 00:37:45;;;;;;;0.60;0.47;;;5.40;99.90;;;;;;5000428;28;20325;-94
2021/12/16 00:40:16;;;;;;;1.07;0.50;;;5.30;99.90;;;;;;4983325;28;20662;-94
2021/12/16 00:42:51;;;;;;;0.30;0.30;;;5.30;99.90;;;;;;5002513;28;20245;-95
2021/12/16 00:45:42;;;;;;;0.20;0.20;;;5.30;99.90;;;;;;5000779;28;20237;-94
2021/12/16 00:48:24;;;;;;;0.30;0.30;;;5.30;99.90;;;;;;4999211;28;20272;-95
2021/12/16 00:56:32;;;;;;;0.30;0.30;;;5.30;99.90;;;;;;4999231;28;20699;-93
2021/12/16 00:59:06;;;;;;;0.40;0.40;;;5.30;99.90;;;;;;4981326;28;20316;-92
2021/12/16 01:01:46;;;;;;;0.30;0.30;;;5.30;99.90;;;;;;5000587;28;20238;-95
2021/12/16 01:04:36;;;;;;;0.30;0.30;;;5.30;99.90;;;;;;5003588;28;20193;-94
2021/12/16 01:35:34;;;;;;;0.40;0.40;;;5.30;99.90;;;;;;5020217;28;20232;-95
2021/12/16 01:49:32;;;;;;;1.23;1.23;;;5.30;99.90;;;;;;5021014;28;20268;-94
2021/12/16 01:52:27;;;;;;;0.30;0.30;;;5.30;99.90;;;;;;5021835;28;20244;-95
2021/12/16 01:55:08;;;;;;;0.30;0.30;;;5.30;99.90;;;;;;5022991;28;20241;-94
2021/12/16 01:57:43;;;;;;;0.93;0.30;;;5.30;99.90;;;;;;5023270;28;20245;-94
2021/12/16 02:00:25;;;;;;;0.30;0.30;;;5.30;99.90;;;;;;5025947;28;20244;-94
2021/12/16 02:03:02;;;;;;;0.20;0.20;;;5.30;99.90;;;;;;5021378;28;20209;-93
2021/12/16 02:05:55;;;;;;;0.30;0.30;;;5.30;99.90;;;;;;5017834;28;20746;-94
2021/12/16 02:08:33;;;;;;;0.37;0.37;;;5.40;99.90;;;;;;5017544;28;20658;-93
2021/12/16 02:11:27;;;;;;;0.60;0.40;;;5.40;99.90;;;;;;5023296;28;20216;-94
2021/12/16 02:36:36;;;;;;;0.20;0.20;;;5.50;99.90;;;;;;5037251;28;20216;-94
2021/12/16 02:39:14;;;;;;;0.30;0.30;;;5.50;99.90;;;;;;5033404;28;20236;-95
2021/12/16 02:41:48;;;;;;;0.40;0.20;;;5.50;99.90;;;;;;5032518;28;20690;-95
2021/12/16 02:49:55;;;;;;;0.60;0.60;;;5.50;99.90;;;;;;5005137;28;20222;-94
2021/12/16 02:52:29;;;;;;;0.97;0.40;;;5.50;99.90;;;;;;5019340;28;20292;-94
2021/12/16 02:55:02;;;;;;;0.50;0.40;;;5.40;99.90;;;;;;5019317;28;20233;-94
2021/12/16 02:57:42;;;;;;;0.60;0.40;;;5.40;99.90;;;;;;5018044;28;20288;-94
2021/12/16 03:00:16;;;;;;;1.57;0.40;;;5.40;99.90;;;;;;5018078;28;20621;-95
2021/12/16 03:02:52;;;;;;;0.50;0.30;;;5.50;99.90;;;;;;5017462;28;20610;-94
2021/12/16 03:05:23;;;;;;;0.67;0.40;;;5.40;99.90;;;;;;5017908;28;20205;-95
2021/12/16 03:07:55;;;;;;;0.40;0.40;;;5.40;99.90;;;;;;4996765;28;20218;-94
2021/12/16 03:10:59;;;;;;;0.90;0.40;;;5.40;99.90;;;;;;4999176;28;20237;-93
2021/12/16 03:13:32;;;;;;;0.30;0.30;;;5.40;99.90;;;;;;4997952;28;20221;-94
2021/12/16 03:16:15;;;;;;;0.40;0.30;;;5.40;99.90;;;;;;4997474;28;20291;-95
2021/12/16 03:18:52;;;;;;;0.97;0.40;;;5.40;99.90;;;;;;4997056;28;20336;-95
2021/12/16 03:21:29;;;;;;;0.30;0.30;;;5.40;99.90;;;;;;4997645;28;20265;-95
2021/12/16 03:24:21;;;;;;;0.40;0.27;;;5.40;99.90;;;;;;4997687;28;20214;-94
2021/12/16 03:27:44;;;;;;;1.03;0.40;;;5.40;99.90;;;;;;4997101;28;20293;-94
2021/12/16 03:36:15;;;;;;;0.30;0.30;;;5.40;99.90;;;;;;4958175;28;20196;-95
2021/12/16 03:38:47;;;;;;;1.10;0.47;;;5.40;99.90;;;;;;5009991;28;20248;-88
2021/12/16 03:41:18;;;;;;;0.50;0.50;;;5.40;99.90;;;;;;5008040;28;20218;-94
2021/12/16 03:43:53;;;;;;;1.17;0.40;;;5.40;99.90;;;;;;5002759;28;20210;-93
2021/12/16 03:46:28;;;;;;;0.43;0.40;;;5.40;99.90;;;;;;4999743;28;20217;-95
2021/12/16 03:49:06;;;;;;;0.60;0.60;;;5.40;99.90;;;;;;5002670;28;20210;-94
2021/12/16 03:51:39;;;;;;;0.70;0.50;;;5.40;99.90;;;;;;5002795;28;20214;-94
2021/12/16 03:54:13;;;;;;;0.73;0.50;;;5.40;99.90;;;;;;4998857;28;20202;-95
2021/12/16 03:56:46;;;;;;;1.13;0.57;;;5.50;99.90;;;;;;5002861;28;20218;-94
2021/12/16 03:59:23;;;;;;;0.50;0.50;;;5.40;99.90;;;;;;4999367;28;20316;-94
2021/12/16 04:01:56;;;;;;;0.60;0.60;;;5.40;99.90;;;;;;4997353;28;20659;-93
2021/12/16 04:04:27;;;;;;;0.60;0.40;;;5.40;99.90;;;;;;4997847;28;20214;-94
2021/12/16 04:06:58;;;;;;;1.13;0.50;;;5.40;99.90;;;;;;4996909;28;20238;-95
2021/12/16 04:09:32;;;;;;;0.50;0.40;;;5.40;99.90;;;;;;5002032;28;20639;-94
2021/12/16 04:12:09;;;;;;;0.67;0.47;;;5.40;99.90;;;;;;5001158;28;20261;-93
2021/12/16 04:14:43;;;;;;;1.13;0.50;;;5.40;99.90;;;;;;4997996;28;20293;-94
2021/12/16 04:17:16;;;;;;;0.83;0.60;;;5.30;99.90;;;;;;4995640;28;20242;-94
2021/12/16 04:19:48;;;;;;;1.13;0.70;;;5.40;99.90;;;;;;4999110;28;20298;-94
2021/12/16 04:22:30;;;;;;;1.07;0.50;;;5.40;99.90;;;;;;4981554;28;20210;-94
2021/12/16 04:25:07;;;;;;;0.50;0.43;;;5.30;99.90;;;;;;4997299;28;20238;-94
2021/12/16 04:27:38;;;;;;;0.40;0.40;;;5.30;99.90;;;;;;4999287;28;20261;-94
2021/12/16 04:30:15;;;;;;;1.00;0.53;;;5.30;99.90;;;;;;4997779;28;20253;-93
2021/12/16 04:32:46;;;;;;;0.50;0.50;;;5.30;99.90;;;;;;4998910;28;20217;-94
2021/12/16 04:35:19;;;;;;;0.83;0.47;;;5.20;99.90;;;;;;4997695;28;20233;-95
2021/12/16 04:37:51;;;;;;;0.30;0.30;;;5.00;99.90;;;;;;4980163;28;20206;-94
2021/12/16 04:40:22;;;;;;;0.40;0.40;;;5.00;99.90;;;;;;4996525;28;20284;-94
2021/12/16 04:42:59;;;;;;;0.40;0.30;;;4.90;99.90;;;;;;4997591;28;20229;-95
2021/12/16 04:45:35;;;;;;;1.03;0.40;;;4.80;99.90;;;;;;4997785;28;20240;-95
2021/12/16 04:48:07;;;;;;;1.97;0.30;;;4.60;99.90;;;;;;4979531;28;20266;-95
2021/12/16 04:50:38;;;;;;;0.30;0.30;;;4.60;99.90;;;;;;4995519;28;20297;-94
2021/12/16 04:53:10;;;;;;;0.30;0.30;;;4.60;99.90;;;;;;5024592;28;20201;-95
2021/12/16 04:55:43;;;;;;;0.50;0.40;;;4.40;99.90;;;;;;5035260;28;20236;-94
2021/12/16 04:58:15;;;;;;;0.40;0.40;;;4.40;99.90;;;;;;5034166;28;20236;-95
2021/12/16 05:00:48;;;;;;;0.60;0.60;;;4.40;99.90;;;;;;5035175;28;20239;-93
2021/12/16 05:03:20;;;;;;;0.43;0.43;;;4.40;99.90;;;;;;5036332;28;20213;-94
2021/12/16 05:05:52;;;;;;;0.37;0.37;;;4.40;99.90;;;;;;5035633;28;20210;-94
2021/12/16 05:08:24;;;;;;;0.20;0.20;;;4.40;99.90;;;;;;5035225;28;20244;-94
2021/12/16 05:11:00;;;;;;;0.50;0.50;;;4.40;99.90;;;;;;5035600;28;20255;-94
2021/12/16 05:13:34;;;;;;;0.30;0.30;;;4.40;99.90;;;;;;5040246;28;20216;-95
2021/12/16 05:16:07;;;;;;;0.50;0.37;;;4.50;99.90;;;;;;5034941;28;20279;-95
2021/12/16 05:18:40;;;;;;;0.50;0.40;;;4.50;99.90;;;;;;5037770;28;20275;-95
2021/12/16 05:21:36;;;;;;;0.40;0.40;;;4.50;99.90;;;;;;5035806;28;20300;-95
2021/12/16 05:24:25;;;;;;;0.23;0.23;;;4.50;99.90;;;;;;5035197;28;20212;-95
2021/12/16 05:26:58;;;;;;;0.30;0.30;;;4.50;99.90;;;;;;5036213;28;20205;-95
2021/12/16 05:29:29;;;;;;;0.70;0.50;;;4.50;99.90;;;;;;5037513;28;20296;-95
2021/12/16 05:32:03;;;;;;;0.43;0.37;;;4.50;99.90;;;;;;5034337;28;20702;-95
2021/12/16 05:34:33;;;;;;;0.30;0.30;;;4.50;99.90;;;;;;5035969;28;20730;-94
2021/12/16 05:37:07;;;;;;;0.40;0.40;;;4.50;99.90;;;;;;5036963;28;20232;-94
2021/12/16 05:39:39;;;;;;;0.30;0.30;;;4.50;99.90;;;;;;5035551;28;20229;-94
2021/12/16 05:42:11;;;;;;;0.63;0.37;;;4.50;99.90;;;;;;5037799;28;20220;-95
2021/12/16 05:44:42;;;;;;;0.43;0.37;;;4.50;99.90;;;;;;5040926;28;20197;-93
2021/12/16 05:47:15;;;;;;;0.40;0.30;;;4.40;99.90;;;;;;5041393;28;20212;-94
2021/12/16 05:49:47;;;;;;;0.30;0.20;;;4.30;99.90;;;;;;5040562;28;20266;-94
2021/12/16 05:52:18;;;;;;;0.60;0.40;;;4.20;99.90;;;;;;5056329;28;20189;-95
2021/12/16 05:54:49;;;;;;;0.50;0.40;;;4.10;99.90;;;;;;5059697;28;20231;-93
2021/12/16 05:57:21;;;;;;;1.80;0.30;;;4.10;99.90;;;;;;5057961;28;20235;-95
2021/12/16 05:59:52;;;;;;;0.50;0.40;;;4.00;99.90;;;;;;5044921;28;20239;-94
2021/12/16 06:02:25;;;;;;;0.53;0.40;;;4.00;99.90;;;;;;5050080;28;20208;-94
2021/12/16 06:04:57;;;;;;;1.20;0.40;;;4.00;99.90;;;;;;5022105;28;20227;-94
2021/12/16 06:07:28;;;;;;;4.23;0.57;;;3.90;99.90;;;;;;5038563;28;20225;-95
2021/12/16 06:10:00;;;;;;;1.20;0.47;;;3.80;99.90;;;;;;5041001;28;20334;-94
2021/12/16 06:12:31;;;;;;;0.50;0.30;;;3.70;99.90;;;;;;5038091;28;20685;-96
2021/12/16 06:15:22;;;;;;;0.20;0.20;;;3.60;99.90;;;;;;5037997;28;20291;-96
2021/12/16 06:26:43;;;;;;;1.53;0.47;;;3.40;99.90;;;;;;5037883;28;20232;-95
2021/12/16 06:29:15;;;;;;;0.30;0.30;;;3.40;99.90;;;;;;5037150;28;20563;-95
2021/12/16 06:31:46;;;;;;;0.30;0.30;;;3.30;99.90;;;;;;5037596;28;20228;-94
2021/12/16 06:34:20;;;;;;;0.53;0.40;;;3.30;99.90;;;;;;5037428;28;20295;-95
2021/12/16 06:36:50;;;;;;;0.50;0.43;;;3.20;99.90;;;;;;5036874;28;20233;-95
2021/12/16 06:39:26;;;;;;;0.53;0.40;;;3.10;99.90;;;;;;5038697;28;20925;-94
2021/12/16 06:41:58;;;;;;;0.83;0.30;;;3.10;99.90;;;;;;5039148;28;20266;-96
2021/12/16 06:44:34;;;;;;;0.43;0.43;;;3.10;99.90;;;;;;5037424;28;20209;-95
2021/12/16 06:47:10;;;;;;;1.17;0.57;;;3.10;99.90;;;;;;5037759;28;20239;-95
2021/12/16 06:49:45;;;;;;;0.60;0.30;;;3.10;99.90;;;;;;5036260;28;20240;-95
2021/12/16 06:52:20;;;;;;;0.70;0.50;;;3.00;99.90;;;;;;5036876;28;20647;-95
2021/12/16 06:55:23;;;;;;;1.60;0.47;;;3.00;99.90;;;;;;5000448;28;20275;-94
2021/12/16 06:57:58;;;;;;;0.70;0.60;;;3.10;99.90;;;;;;5016418;28;20401;-93
2021/12/16 07:00:35;;;;;;;2.50;0.40;;;3.00;99.90;;;;;;5020230;28;20251;-94
2021/12/16 07:03:17;;;;;;;0.70;0.50;;;3.10;99.90;;;;;;5000955;28;20711;-95
2021/12/16 07:05:54;;;;;;;0.90;0.60;;;3.00;99.90;;;;;;5017499;28;20680;-94
2021/12/16 07:08:27;;;;;;;1.00;0.70;;;3.00;99.90;;;;;;4997716;28;20244;-94
2021/12/16 07:10:59;;;;;;;0.60;0.60;;;3.00;99.90;;;;;;4997992;28;20249;-94
2021/12/16 07:13:37;;;;;;;0.53;0.50;;;3.00;99.90;;;;;;4997852;28;20234;-95
2021/12/16 07:16:15;;;;;;;2.30;0.87;;;3.00;99.90;;;;;;4999402;28;20298;-94
2021/12/16 07:18:46;;;;;;;2.20;0.77;;;3.10;99.90;;;;;;5000395;28;20209;-96
2021/12/16 07:21:23;;;;;;;0.87;0.60;;;3.10;99.90;;;;;;4999990;28;20238;-95
2021/12/16 07:23:54;;;;;;;0.63;0.57;;;3.10;99.90;;;;;;5000533;28;20206;-95
2021/12/16 07:26:25;;;;;;;0.60;0.60;;;3.10;99.90;;;;;;4997417;28;20290;-94
2021/12/16 07:28:57;;;;;;;1.00;0.57;;;3.10;99.90;;;;;;5001017;28;20226;-95
2021/12/16 07:31:30;;;;;;;0.70;0.43;;;3.20;99.90;;;;;;4998521;28;20238;-94
2021/12/16 07:34:02;;;;;;;0.60;0.50;;;3.10;99.90;;;;;;5028131;28;20213;-94
2021/12/16 07:36:37;;;;;;;0.73;0.43;;;3.20;99.90;;;;;;5038732;28;20280;-93
2021/12/16 07:39:10;;;;;;;0.60;0.60;;;3.20;99.90;;;;;;5056691;28;20201;-93
2021/12/16 07:41:46;;;;;;;1.67;0.70;;;3.20;99.90;;;;;;5057175;28;20228;-92
2021/12/16 07:44:17;;;;;;;0.70;0.50;;;3.30;99.90;;;;;;5056345;28;20199;-94
2021/12/16 07:46:52;;;;;;;0.80;0.60;;;3.30;99.90;;;;;;5056896;28;20196;-94
2021/12/16 07:49:26;;;;;;;0.90;0.87;;;3.30;99.90;;;;;;5057298;28;20211;-94
2021/12/16 07:52:00;;;;;;;1.10;0.70;;;3.30;99.90;;;;;;5057030;28;20223;-94
2021/12/16 07:54:33;;;;;;;0.80;0.50;;;3.30;99.90;;;;;;5056353;28;20665;-95
2021/12/16 07:57:05;;;;;;;0.60;0.60;;;3.40;99.90;;;;;;5046030;28;20236;-94
2021/12/16 07:59:37;;;;;;;1.30;0.70;;;3.40;99.90;;;;;;5046014;28;20213;-96
2021/12/16 08:02:11;;;;;;;0.70;0.70;;;3.50;99.90;;;;;;5047150;28;20260;-94
2021/12/16 08:04:45;;;;;;;2.10;0.50;;;3.50;99.90;;;;;;5073327;23;20263;-94
2021/12/16 08:07:22;;;;;;;0.50;0.50;;;3.50;99.90;;;;;;5020101;28;20206;-95
2021/12/16 08:10:04;;;;;;;0.53;0.40;;;3.50;99.90;;;;;;5037103;28;20216;-94
2021/12/16 08:12:35;;;;;;;1.97;0.80;;;3.50;99.90;;;;;;5037176;28;20209;-92
2021/12/16 08:15:09;;;;;;;1.10;0.60;;;3.40;99.90;;;;;;5037275;28;20194;-94
2021/12/16 08:17:40;;;;;;;0.50;0.50;;;3.40;99.90;;;;;;5035803;28;20213;-91
2021/12/16 08:20:16;;;;;;;1.13;0.63;;;3.40;99.90;;;;;;5026218;28;20240;-94
2021/12/16 08:22:50;;;;;;;0.80;0.50;;;3.50;99.90;;;;;;5004810;28;20229;-95
2021/12/16 08:25:24;;;;;;;0.90;0.80;;;3.50;99.90;;;;;;5020494;28;20259;-95
2021/12/16 08:27:55;;;;;;;0.40;0.40;;;3.50;99.90;;;;;;5018118;28;20305;-94
2021/12/16 08:30:32;;;;;;;1.10;0.50;;;3.60;99.90;;;;;;5017406;28;20237;-95
2021/12/16 08:33:06;;;;;;;1.37;0.30;;;3.50;99.90;;;;;;4997557;28;20210;-94
2021/12/16 08:35:37;;;;;;;0.50;0.50;;;3.50;99.90;;;;;;4997658;28;20214;-94
2021/12/16 08:38:11;;;;;;;0.50;0.40;;;3.50;99.90;;;;;;4997457;28;20233;-94
2021/12/16 08:40:45;;;;;;;0.63;0.60;;;3.50;99.90;;;;;;4998253;28;20341;-94
2021/12/16 08:43:17;;;;;;;0.87;0.53;;;3.50;99.90;;;;;;4997689;28;20206;-95
2021/12/16 08:45:49;;;;;;;1.63;0.70;;;3.50;99.90;;;;;;4997935;28;20206;-94
2021/12/16 08:48:21;;;;;;;0.53;0.53;;;3.60;99.90;;;;;;4997226;28;20237;-94
2021/12/16 08:50:53;;;;;;;2.17;0.40;;;3.50;99.90;;;;;;4997437;28;20210;-95
2021/12/16 08:53:26;;;;;;;0.73;0.50;;;3.50;99.90;;;;;;4997257;28;20234;-94
2021/12/16 08:55:58;;;;;;;0.50;0.47;;;3.50;99.90;;;;;;4997506;28;20206;-96
2021/12/16 08:58:29;;;;;;;1.60;0.47;;;3.40;99.90;;;;;;4997281;28;20242;-92
2021/12/16 09:01:05;;;;;;;1.23;0.70;;;3.50;99.90;;;;;;5034651;28;20331;-93
2021/12/16 09:03:37;;;;;;;0.70;0.40;;;3.50;99.90;;;;;;5037058;28;20215;-93
2021/12/16 09:06:09;;;;;;;0.57;0.50;;;3.40;99.90;;;;;;5036179;28;20205;-95
2021/12/16 09:08:43;;;;;;;0.60;0.53;;;3.40;99.90;;;;;;4996929;28;20206;-95
2021/12/16 09:11:19;;;;;;;1.77;0.80;;;3.40;99.90;;;;;;4997574;28;20245;-95
2021/12/16 09:13:52;;;;;;;2.37;0.73;;;3.40;99.90;;;;;;4997257;28;20627;-94
2021/12/16 09:16:29;;;;;;;1.20;0.93;;;3.50;99.90;;;;;;4979422;28;20213;-94
2021/12/16 09:19:01;;;;;;;1.90;0.90;;;3.50;99.90;;;;;;4998978;28;20249;-94
2021/12/16 09:21:35;;;;;;;0.90;0.60;;;3.50;99.90;;;;;;5002360;28;20234;-94
2021/12/16 09:24:09;;;;;;;0.70;0.60;;;3.50;99.90;;;;;;5001051;28;20240;-94
2021/12/16 09:26:40;;;;;;;0.97;0.70;;;3.50;99.90;;;;;;5002375;28;20221;-94
2021/12/16 09:29:12;;;;;;;1.00;0.63;;;3.50;99.90;;;;;;5005012;28;20297;-94
2021/12/16 09:31:43;;;;;;;0.67;0.67;;;3.50;99.90;;;;;;5013718;28;20293;-94
2021/12/16 09:34:15;;;;;;;0.80;0.70;;;3.50;99.90;;;;;;5022582;28;20237;-95
2021/12/16 09:36:46;;;;;;;1.37;1.00;;;3.50;99.90;;;;;;5019748;28;20249;-94
2021/12/16 09:39:23;;;;;;;1.53;1.10;;;3.50;99.90;;;;;;5020951;28;20229;-94
2021/12/16 09:41:57;;;;;;;1.03;0.93;;;3.50;99.90;;;;;;5019316;28;20318;-92
2021/12/16 09:44:29;;;;;;;1.77;1.10;;;3.50;99.90;;;;;;5019516;28;20244;-93
2021/12/16 09:47:02;;;;;;;2.30;1.10;;;3.50;99.90;;;;;;5024261;28;20217;-93
2021/12/16 09:49:32;;;;;;;2.00;1.10;;;3.60;99.90;;;;;;5019239;28;20245;-93
2021/12/16 09:52:06;;;;;;;2.80;1.37;;;3.60;99.90;;;;;;5019343;28;20287;-93
2021/12/16 09:54:40;;;;;;;1.97;1.20;;;3.50;99.90;;;;;;5019140;28;20685;-94
2021/12/16 09:57:11;;;;;;;4.20;1.30;;;3.60;99.90;;;;;;5017864;28;20565;-95
2021/12/16 09:59:42;;;;;;;1.83;1.17;;;3.60;99.90;;;;;;5019088;28;20616;-94
2021/12/16 10:02:16;;;;;;;1.63;1.10;;;3.70;99.90;;;;;;5018533;28;20244;-93
2021/12/16 10:04:48;;;;;;;1.17;1.00;;;3.60;99.90;;;;;;5019615;28;20276;-94
2021/12/16 10:07:21;;;;;;;1.10;1.00;;;3.60;99.90;;;;;;5019096;28;20655;-94
2021/12/16 10:09:56;;;;;;;1.43;1.10;;;3.60;99.90;;;;;;5002561;28;20209;-95
2021/12/16 10:12:33;;;;;;;1.80;1.10;;;3.60;99.90;;;;;;5020480;28;20662;-95
2021/12/16 10:17:22;;;;;;;1.53;1.20;;;3.60;99.90;;;;;;5020379;28;20700;-95
2021/12/16 10:18:03;;;;;;;2.23;1.40;;;3.60;99.90;;;;;;5018946;28;20268;-96
2021/12/16 10:20:37;;;;;;;1.30;1.17;;;3.60;99.90;;;;;;5022010;28;20230;-93
2021/12/16 10:23:23;;;;;;;2.13;1.50;;;3.70;99.90;;;;;;5037168;28;20256;-95
2021/12/16 10:25:58;;;;;;;1.47;1.37;;;3.70;99.90;;;;;;5038662;28;20201;-94
2021/12/16 10:28:31;;;;;;;1.67;1.30;;;3.70;99.90;;;;;;5034246;28;20204;-95
2021/12/16 10:31:07;;;;;;;1.67;1.30;;;3.70;99.90;;;;;;4686410;28;9999850;-95
2021/12/16 10:33:42;;;;;;;3.07;1.60;;;3.70;99.90;;;;;;5023888;28;20653;-94
2021/12/16 10:36:16;;;;;;;1.87;1.20;;;3.70;99.90;;;;;;5017853;28;20292;-94
2021/12/16 10:38:49;;;;;;;1.73;0.93;;;3.70;99.90;;;;;;5018311;28;20616;-94
2021/12/16 10:41:26;;;;;;;0.87;0.73;;;3.70;99.90;;;;;;5017947;28;20717;-93
2021/12/16 10:44:05;;;;;;;2.67;0.97;;;3.70;99.90;;;;;;5017777;28;20224;-94
2021/12/16 10:46:42;;;;;;;0.83;0.63;;;3.70;99.90;;;;;;5017590;28;20232;-94
2021/12/16 10:49:15;;;;;;;0.87;0.73;;;3.60;99.90;;;;;;5017741;28;20211;-94
2021/12/16 10:51:47;;;;;;;0.93;0.90;;;3.60;99.90;;;;;;5028579;28;20288;-94
2021/12/16 10:54:21;;;;;;;2.27;0.70;;;3.60;99.90;;;;;;5037884;28;20240;-94
2021/12/16 10:57:09;;;;;;;0.80;0.67;;;3.70;99.90;;;;;;5036987;28;20247;-94
2021/12/16 10:59:43;;;;;;;0.80;0.60;;;3.60;99.90;;;;;;5037335;28;20676;-93
2021/12/16 11:02:17;;;;;;;0.60;0.60;;;3.50;99.90;;;;;;5036787;28;20663;-93
2021/12/16 11:04:51;;;;;;;1.27;0.50;;;3.50;99.90;;;;;;5036818;28;20216;-94
2021/12/16 11:07:26;;;;;;;0.37;0.37;;;3.40;99.90;;;;;;5035729;28;20229;-94
2021/12/16 11:10:01;;;;;;;0.40;0.40;;;3.40;99.90;;;;;;5036865;28;20240;-94
2021/12/16 11:12:41;;;;;;;0.67;0.50;;;3.40;99.90;;;;;;5037192;28;20201;-94
2021/12/16 11:15:17;;;;;;;0.40;0.40;;;3.50;99.90;;;;;;5039631;28;20631;-93
2021/12/16 11:17:52;;;;;;;0.87;0.60;;;3.50;99.90;;;;;;5035857;28;20224;-95
2021/12/16 11:20:30;;;;;;;1.57;0.70;;;3.60;99.90;;;;;;5037972;28;20342;-93
2021/12/16 11:23:04;;;;;;;0.40;0.40;;;3.60;99.90;;;;;;5038198;28;20271;-93
2021/12/16 11:25:40;;;;;;;1.47;0.50;;;3.70;99.90;;;;;;5037936;28;20714;-92
2021/12/16 11:28:18;;;;;;;0.67;0.53;;;3.70;99.90;;;;;;5036118;28;20295;-94
2021/12/16 11:30:53;;;;;;;0.73;0.40;;;3.70;99.90;;;;;;5036249;28;20584;-94
2021/12/16 11:33:28;;;;;;;0.57;0.40;;;3.70;99.90;;;;;;5036973;28;20249;-94
2021/12/16 11:36:04;;;;;;;0.80;0.43;;;3.70;99.90;;;;;;5037975;28;20291;-95
2021/12/16 11:38:39;;;;;;;0.43;0.30;;;3.70;99.90;;;;;;5037652;28;20719;-94
2021/12/16 11:41:21;;;;;;;0.60;0.40;;;3.70;99.90;;;;;;5025105;28;20244;-93
2021/12/16 11:43:59;;;;;;;1.17;0.40;;;3.70;99.90;;;;;;5026564;28;20340;-94
2021/12/16 11:46:33;;;;;;;0.30;0.30;;;3.70;99.90;;;;;;5028007;28;20208;-93
2021/12/16 11:49:24;;;;;;;0.70;0.40;;;3.70;99.90;;;;;;5038601;28;20201;-92
2021/12/16 11:52:00;;;;;;;0.67;0.60;;;3.80;99.90;;;;;;5037295;28;20300;-94
2021/12/16 11:54:34;;;;;;;0.73;0.40;;;3.80;99.90;;;;;;5039301;28;20291;-93
2021/12/16 11:57:13;;;;;;;0.90;0.60;;;3.80;99.90;;;;;;5045763;28;20219;-93
2021/12/16 11:59:49;;;;;;;0.47;0.40;;;3.80;99.90;;;;;;5053853;28;20208;-93
2021/12/16 12:02:31;;;;;;;2.97;0.33;;;3.80;99.90;;;;;;5049473;28;20618;-94
2021/12/16 12:05:19;;;;;;;0.70;0.60;;;3.80;99.90;;;;;;5049719;28;20221;-93
2021/12/16 12:07:52;;;;;;;0.97;0.47;;;3.80;99.90;;;;;;5042790;28;20200;-94
2021/12/16 12:10:40;;;;;;;0.57;0.50;;;3.80;99.90;;;;;;5036391;28;20217;-94
2021/12/16 12:13:13;;;;;;;0.47;0.43;;;3.80;99.90;;;;;;5036394;28;20663;-94
2021/12/16 12:16:02;;;;;;;0.50;0.50;;;3.80;99.90;;;;;;5018696;28;20247;-94
2021/12/16 12:18:39;;;;;;;1.30;0.50;;;3.80;99.90;;;;;;5035870;28;20583;-93
2021/12/16 12:21:25;;;;;;;1.03;0.53;;;3.80;99.90;;;;;;5036236;28;20212;-93
2021/12/16 12:23:58;;;;;;;0.73;0.47;;;3.80;99.90;;;;;;5035436;28;20252;-93
2021/12/16 12:26:32;;;;;;;1.07;0.40;;;3.80;99.90;;;;;;5035436;28;20288;-94
2021/12/16 12:29:07;;;;;;;1.07;0.50;;;3.80;99.90;;;;;;5036423;28;20217;-93
2021/12/16 12:31:42;;;;;;;0.73;0.50;;;3.90;99.90;;;;;;5036445;28;20291;-94
2021/12/16 12:34:14;;;;;;;1.17;0.47;;;3.90;99.90;;;;;;5036889;28;20299;-94
2021/12/16 12:36:47;;;;;;;0.40;0.40;;;3.90;99.90;;;;;;5037527;28;20251;-94
2021/12/16 12:39:21;;;;;;;0.43;0.43;;;3.90;99.90;;;;;;5040806;28;20189;-92
2021/12/16 12:41:54;;;;;;;0.60;0.60;;;3.80;99.90;;;;;;5056983;28;20200;-93
2021/12/16 12:44:25;;;;;;;0.73;0.60;;;3.80;99.90;;;;;;5055012;28;20229;-93
2021/12/16 12:47:04;;;;;;;0.73;0.50;;;3.90;99.90;;;;;;5047600;28;20216;-94
2021/12/16 12:49:35;;;;;;;0.40;0.33;;;3.80;99.90;;;;;;5028476;28;20224;-94
2021/12/16 12:52:10;;;;;;;0.40;0.33;;;3.80;99.90;;;;;;5040680;23;20307;-94
2021/12/16 12:54:45;;;;;;;1.13;0.40;;;3.90;99.90;;;;;;5035946;28;20240;-93
2021/12/16 12:57:25;;;;;;;0.30;0.20;;;3.90;99.90;;;;;;5035073;28;20588;-93
2021/12/16 12:59:58;;;;;;;0.87;0.53;;;3.80;99.90;;;;;;5019215;28;20307;-93
2021/12/16 13:02:34;;;;;;;0.37;0.37;;;3.80;99.90;;;;;;5036054;28;20215;-94
2021/12/16 13:05:13;;;;;;;0.30;0.30;;;3.80;99.90;;;;;;5035869;28;20205;-94
2021/12/16 13:07:48;;;;;;;0.43;0.43;;;3.80;99.90;;;;;;5034829;28;20240;-94
2021/12/16 13:10:22;;;;;;;0.50;0.50;;;3.90;99.90;;;;;;5035273;28;20312;-94
2021/12/16 13:13:00;;;;;;;0.60;0.40;;;3.90;99.90;;;;;;5035686;28;20278;-94
2021/12/16 13:15:44;;;;;;;0.87;0.40;;;3.90;99.90;;;;;;5036378;28;20209;-93
2021/12/16 13:24:25;;;;;;;0.53;0.30;;;3.80;99.90;;;;;;5037176;28;20326;-94
2021/12/16 13:27:06;;;;;;;1.13;0.60;;;3.80;99.90;;;;;;5034660;28;20259;-94
2021/12/16 13:29:40;;;;;;;1.90;0.30;;;3.90;99.90;;;;;;5037320;28;20236;-94
2021/12/16 13:32:16;;;;;;;0.50;0.40;;;3.90;99.90;;;;;;5066067;23;20240;-94
2021/12/16 13:34:57;;;;;;;0.47;0.40;;;3.90;99.90;;;;;;5045736;28;20645;-92
2021/12/16 13:37:35;;;;;;;0.60;0.40;;;3.90;99.90;;;;;;5036262;28;20205;-95
2021/12/16 13:40:10;;;;;;;1.33;0.40;;;3.80;99.90;;;;;;5036836;28;20213;-94
2021/12/16 13:42:47;;;;;;;0.97;0.50;;;3.90;99.90;;;;;;5050193;28;20185;-94
2021/12/16 13:45:24;;;;;;;2.80;0.53;;;3.80;99.90;;;;;;5055708;28;20224;-94
2021/12/16 13:48:09;;;;;;;0.63;0.53;;;3.80;99.90;;;;;;5054854;28;20192;-94
2021/12/16 14:05:56;;;;;;;0.87;0.40;;;3.80;99.90;;;;;;5031609;28;20259;-96
2021/12/16 14:08:35;;;;;;;2.10;0.40;;;3.70;99.90;;;;;;5038968;28;20300;-95
2021/12/16 14:14:26;;;;;;;1.00;0.40;;;3.60;99.90;;;;;;5003045;28;20217;-94
2021/12/16 14:17:12;;;;;;;1.67;0.80;;;3.50;99.90;;;;;;5037160;28;20706;-94
2021/12/16 14:25:32;;;;;;;0.70;0.60;;;3.40;99.90;;;;;;5038519;28;20224;-93
2021/12/16 14:31:11;;;;;;;2.47;0.50;;;3.40;99.90;;;;;;5038531;28;20240;-93
2021/12/16 14:42:26;;;;;;;1.10;0.80;;;3.40;99.90;;;;;;5047800;28;20209;-92
2021/12/16 14:50:44;;;;;;;1.10;0.77;;;3.20;99.90;;;;;;5044313;28;20208;-94
2021/12/16 14:53:26;;;;;;;0.77;0.67;;;3.20;99.90;;;;;;5044931;28;20613;-93
2021/12/16 14:56:05;;;;;;;1.33;0.40;;;3.20;99.90;;;;;;5038368;28;20270;-94
2021/12/16 14:58:38;;;;;;;0.40;0.40;;;3.30;99.90;;;;;;5041466;28;20227;-95
2021/12/16 15:01:13;;;;;;;1.00;0.60;;;3.30;99.90;;;;;;5055081;28;20228;-91
2021/12/16 15:03:46;;;;;;;0.90;0.50;;;3.40;99.90;;;;;;5058724;28;20629;-93
2021/12/16 15:06:23;;;;;;;1.23;0.70;;;3.40;99.90;;;;;;5056862;28;20193;-94
2021/12/16 15:09:07;;;;;;;1.40;0.63;;;3.50;99.90;;;;;;5053022;28;20196;-94
2021/12/16 15:11:48;;;;;;;1.40;0.70;;;3.40;99.90;;;;;;5054255;28;20205;-94
2021/12/16 15:14:31;;;;;;;1.17;0.70;;;3.40;99.90;;;;;;5036571;28;20676;-94
2021/12/16 15:17:10;;;;;;;0.83;0.70;;;3.50;99.90;;;;;;5035909;28;20209;-94
2021/12/16 15:37:07;;;;;;;1.10;1.00;;;3.50;99.90;;;;;;5035927;28;20212;-95
2021/12/16 15:39:49;;;;;;;1.27;0.87;;;3.50;99.90;;;;;;5036325;28;20209;-95
2021/12/16 15:45:17;;;;;;;1.97;1.20;;;3.60;99.90;;;;;;5036350;28;20657;-94
2021/12/16 15:47:55;;;;;;;3.13;1.37;;;3.60;99.90;;;;;;5035097;28;20214;-94
2021/12/16 15:50:30;;;;;;;4.00;1.10;;;3.40;99.90;;;;;;5037486;28;20208;-94
2021/12/16 15:53:03;;;;;;;1.90;1.30;;;3.40;99.90;;;;;;5048033;28;20235;-94
2021/12/16 15:55:37;;;;;;;2.27;1.40;;;3.50;99.90;;;;;;5060962;28;20206;-95
2021/12/16 15:58:12;;;;;;;7.17;1.70;;;3.40;99.90;;;;;;5058908;28;20242;-95
2021/12/16 16:00:47;;;;;;;3.13;1.43;;;3.40;99.90;;;;;;5061355;28;20243;-94
2021/12/16 16:03:20;;;;;;;1.83;1.60;;;3.50;99.90;;;;;;5059395;28;20208;-95
2021/12/16 16:05:55;;;;;;;4.53;1.80;;;3.50;99.90;;;;;;5044926;28;20236;-93
2021/12/16 16:08:28;;;;;;;3.50;1.87;;;3.50;99.90;;;;;;5059163;28;20218;-93
2021/12/16 16:11:02;;;;;;;4.07;2.10;;;3.50;99.90;;;;;;5062597;28;20530;-93
2021/12/16 16:13:41;;;;;;;2.37;1.50;;;3.50;99.90;;;;;;5046659;28;20711;-94
2021/12/16 16:16:23;;;;;;;2.83;1.80;;;3.50;99.90;;;;;;5061721;28;20238;-94
2021/12/16 16:19:00;;;;;;;2.97;1.87;;;3.60;99.90;;;;;;5057929;28;20238;-94
2021/12/16 16:21:33;;;;;;;6.53;2.20;;;3.60;99.90;;;;;;5062230;28;20285;-95
2021/12/16 16:24:10;;;;;;;4.70;2.07;;;3.60;99.90;;;;;;5058503;28;20225;-94
2021/12/16 16:26:42;;;;;;;4.50;2.27;;;3.60;99.90;;;;;;5059723;28;20220;-94
2021/12/16 16:29:16;;;;;;;3.63;1.83;;;3.60;99.90;;;;;;5057635;28;20235;-94
2021/12/16 16:31:49;;;;;;;3.13;2.20;;;3.60;99.90;;;;;;5048066;28;20251;-94
2021/12/16 16:34:23;;;;;;;5.47;2.37;;;3.50;99.90;;;;;;5037672;28;20208;-94
2021/12/16 16:36:57;;;;;;;4.83;2.57;;;3.40;99.90;;;;;;5037396;28;20244;-95
2021/12/16 16:39:30;;;;;;;5.70;3.10;;;3.30;99.90;;;;;;5037719;28;20331;-95
2021/12/16 16:42:05;;;;;;;7.27;3.10;;;3.30;99.90;;;;;;5038077;28;20209;-96